sensor_id;sensor_type;location;lat;lon;timestamp;pressure;altitude;pressure_sealevel;temperature;humidity
13033;BME280;6583;42.632;23.298;2022-11-09T00:02:18;93014.56;;;9.66;100.00
13033;BME280;6583;42.632;23.298;2022-11-09T00:04:44;93016.41;;;9.60;100.00
13033;BME280;6583;42.632;23.298;2022-11-09T00:07:11;93019.91;;;9.55;100.00
13033;BME280;6583;42.632;23.298;2022-11-09T00:09:39;93018.03;;;9.51;100.00
13033;BME280;6583;42.632;23.298;2022-11-09T00:12:07;93010.38;;;9.49;100.00
13033;BME280;6583;42.632;23.298;2022-11-09T00:14:34;93014.38;;;9.47;100.00
13033;BME280;6583;42.632;23.298;2022-11-09T00:17:01;93019.41;;;9.48;100.00
13033;BME280;6583;42.632;23.298;2022-11-09T00:19:27;93023.59;;;9.54;100.00
13033;BME280;6583;42.632;23.298;2022-11-09T00:21:54;93027.03;;;9.55;100.00
13033;BME280;6583;42.632;23.298;2022-11-09T00:24:21;93022.81;;;9.54;100.00
13033;BME280;6583;42.632;23.298;2022-11-09T00:26:49;93017.00;;;9.47;100.00
13033;BME280;6583;42.632;23.298;2022-11-09T00:29:15;93015.16;;;9.42;100.00
13033;BME280;6583;42.632;23.298;2022-11-09T00:31:42;93019.44;;;9.28;100.00
13033;BME280;6583;42.632;23.298;2022-11-09T00:34:09;93017.34;;;9.19;100.00
13033;BME280;6583;42.632;23.298;2022-11-09T00:36:35;93022.13;;;9.12;100.00
13033;BME280;6583;42.632;23.298;2022-11-09T00:39:02;93023.97;;;9.07;100.00
13033;BME280;6583;42.632;23.298;2022-11-09T00:41:29;93013.66;;;9.10;100.00
13033;BME280;6583;42.632;23.298;2022-11-09T00:43:57;93016.56;;;9.09;100.00
13033;BME280;6583;42.632;23.298;2022-11-09T00:46:24;93013.09;;;9.13;100.00
13033;BME280;6583;42.632;23.298;2022-11-09T00:48:50;93011.00;;;9.10;100.00
13033;BME280;6583;42.632;23.298;2022-11-09T00:51:17;93013.09;;;9.08;100.00
13033;BME280;6583;42.632;23.298;2022-11-09T00:53:44;93010.19;;;9.04;100.00
13033;BME280;6583;42.632;23.298;2022-11-09T00:56:12;93007.31;;;8.96;100.00
13033;BME280;6583;42.632;23.298;2022-11-09T00:58:39;93007.56;;;8.89;100.00
13033;BME280;6583;42.632;23.298;2022-11-09T01:01:09;93008.91;;;8.97;100.00
13033;BME280;6583;42.632;23.298;2022-11-09T01:03:36;93002.81;;;9.01;100.00
13033;BME280;6583;42.632;23.298;2022-11-09T01:06:04;93001.47;;;8.94;100.00
13033;BME280;6583;42.632;23.298;2022-11-09T01:08:31;93005.22;;;8.82;100.00
13033;BME280;6583;42.632;23.298;2022-11-09T01:11:03;93007.88;;;8.77;100.00
13033;BME280;6583;42.632;23.298;2022-11-09T01:13:30;93003.63;;;8.76;100.00
13033;BME280;6583;42.632;23.298;2022-11-09T01:15:57;93007.06;;;8.72;100.00
13033;BME280;6583;42.632;23.298;2022-11-09T01:18:25;93011.56;;;8.66;100.00
13033;BME280;6583;42.632;23.298;2022-11-09T01:20:52;93004.16;;;8.63;100.00
13033;BME280;6583;42.632;23.298;2022-11-09T01:23:19;93009.97;;;8.65;100.00
13033;BME280;6583;42.632;23.298;2022-11-09T01:25:45;93007.31;;;8.65;100.00
13033;BME280;6583;42.632;23.298;2022-11-09T01:28:12;93001.50;;;8.68;100.00
13033;BME280;6583;42.632;23.298;2022-11-09T01:30:40;93004.66;;;8.80;100.00
13033;BME280;6583;42.632;23.298;2022-11-09T01:33:08;92994.63;;;8.88;100.00
13033;BME280;6583;42.632;23.298;2022-11-09T01:35:38;92997.22;;;9.03;100.00
13033;BME280;6583;42.632;23.298;2022-11-09T01:38:06;93006.75;;;9.14;100.00
13033;BME280;6583;42.632;23.298;2022-11-09T01:40:35;93004.09;;;9.19;100.00
13033;BME280;6583;42.632;23.298;2022-11-09T01:43:05;93002.22;;;9.20;100.00
13033;BME280;6583;42.632;23.298;2022-11-09T01:45:32;93001.16;;;9.26;100.00
13033;BME280;6583;42.632;23.298;2022-11-09T01:48:02;92991.63;;;9.30;100.00
13033;BME280;6583;42.632;23.298;2022-11-09T01:50:35;92992.13;;;9.32;100.00
13033;BME280;6583;42.632;23.298;2022-11-09T01:53:08;92997.41;;;9.37;100.00
13033;BME280;6583;42.632;23.298;2022-11-09T01:55:38;92998.22;;;9.38;100.00
13033;BME280;6583;42.632;23.298;2022-11-09T01:58:08;93000.06;;;9.32;100.00
13033;BME280;6583;42.632;23.298;2022-11-09T02:00:37;92991.63;;;9.30;100.00
13033;BME280;6583;42.632;23.298;2022-11-09T02:03:10;92996.16;;;9.19;100.00
13033;BME280;6583;42.632;23.298;2022-11-09T02:05:39;92998.81;;;9.09;100.00
13033;BME280;6583;42.632;23.298;2022-11-09T02:08:09;93009.41;;;8.99;100.00
13033;BME280;6583;42.632;23.298;2022-11-09T02:10:42;92997.25;;;8.93;100.00
13033;BME280;6583;42.632;23.298;2022-11-09T02:13:12;92999.38;;;8.91;100.00
13033;BME280;6583;42.632;23.298;2022-11-09T02:15:41;92995.94;;;8.85;100.00
13033;BME280;6583;42.632;23.298;2022-11-09T02:18:08;93005.22;;;8.77;100.00
13033;BME280;6583;42.632;23.298;2022-11-09T02:20:46;93000.72;;;8.68;100.00
13033;BME280;6583;42.632;23.298;2022-11-09T02:23:14;92997.81;;;8.69;100.00
13033;BME280;6583;42.632;23.298;2022-11-09T02:25:44;92999.66;;;8.69;100.00
13033;BME280;6583;42.632;23.298;2022-11-09T02:28:13;93003.63;;;8.66;100.00
13033;BME280;6583;42.632;23.298;2022-11-09T02:30:41;93008.66;;;8.62;100.00
13033;BME280;6583;42.632;23.298;2022-11-09T02:33:08;93007.59;;;8.63;100.00
13033;BME280;6583;42.632;23.298;2022-11-09T02:35:35;93006.28;;;8.66;100.00
13033;BME280;6583;42.632;23.298;2022-11-09T02:38:05;93013.69;;;8.59;100.00
13033;BME280;6583;42.632;23.298;2022-11-09T02:40:37;93004.41;;;8.56;100.00
13033;BME280;6583;42.632;23.298;2022-11-09T02:43:07;93010.50;;;8.57;100.00
13033;BME280;6583;42.632;23.298;2022-11-09T02:45:34;92994.38;;;8.58;100.00
13033;BME280;6583;42.632;23.298;2022-11-09T02:48:01;92998.84;;;8.63;100.00
13033;BME280;6583;42.632;23.298;2022-11-09T02:50:28;92998.34;;;8.66;100.00
13033;BME280;6583;42.632;23.298;2022-11-09T02:52:54;92999.38;;;8.60;100.00
13033;BME280;6583;42.632;23.298;2022-11-09T02:55:22;92998.84;;;8.47;100.00
13033;BME280;6583;42.632;23.298;2022-11-09T02:57:49;93005.19;;;8.41;100.00
13033;BME280;6583;42.632;23.298;2022-11-09T03:00:16;93001.72;;;8.41;100.00
13033;BME280;6583;42.632;23.298;2022-11-09T03:02:43;93000.44;;;8.43;100.00
13033;BME280;6583;42.632;23.298;2022-11-09T03:05:09;93002.56;;;8.46;100.00
13033;BME280;6583;42.632;23.298;2022-11-09T03:07:36;93011.56;;;8.51;100.00
13033;BME280;6583;42.632;23.298;2022-11-09T03:10:03;93014.72;;;8.58;100.00
13033;BME280;6583;42.632;23.298;2022-11-09T03:12:31;93018.97;;;8.59;100.00
13033;BME280;6583;42.632;23.298;2022-11-09T03:14:59;93010.50;;;8.62;100.00
13033;BME280;6583;42.632;23.298;2022-11-09T03:17:26;93012.09;;;8.63;100.00
13033;BME280;6583;42.632;23.298;2022-11-09T03:19:53;93015.28;;;8.55;100.00
13033;BME280;6583;42.632;23.298;2022-11-09T03:22:20;93016.56;;;8.47;100.00
13033;BME280;6583;42.632;23.298;2022-11-09T03:24:47;93012.59;;;8.34;100.00
13033;BME280;6583;42.632;23.298;2022-11-09T03:27:14;93010.97;;;8.33;100.00
13033;BME280;6583;42.632;23.298;2022-11-09T03:29:42;93018.38;;;8.31;100.00
13033;BME280;6583;42.632;23.298;2022-11-09T03:32:09;93008.34;;;8.28;100.00
13033;BME280;6583;42.632;23.298;2022-11-09T03:34:36;93007.03;;;8.25;100.00
13033;BME280;6583;42.632;23.298;2022-11-09T03:37:02;93008.34;;;8.28;100.00
13033;BME280;6583;42.632;23.298;2022-11-09T03:39:29;93018.66;;;8.29;100.00
13033;BME280;6583;42.632;23.298;2022-11-09T03:41:56;93013.34;;;8.24;100.00
13033;BME280;6583;42.632;23.298;2022-11-09T03:44:23;93015.47;;;8.22;100.00
13033;BME280;6583;42.632;23.298;2022-11-09T03:46:51;93012.56;;;8.24;100.00
13033;BME280;6583;42.632;23.298;2022-11-09T03:49:17;93017.84;;;8.24;100.00
13033;BME280;6583;42.632;23.298;2022-11-09T03:51:44;93013.88;;;8.21;100.00
13033;BME280;6583;42.632;23.298;2022-11-09T03:54:10;93021.53;;;8.23;100.00
13033;BME280;6583;42.632;23.298;2022-11-09T03:56:37;93014.66;;;8.27;100.00
13033;BME280;6583;42.632;23.298;2022-11-09T03:59:04;93016.78;;;8.30;100.00
13033;BME280;6583;42.632;23.298;2022-11-09T04:01:31;93023.16;;;8.34;100.00
13033;BME280;6583;42.632;23.298;2022-11-09T04:03:59;93020.78;;;8.38;100.00
13033;BME280;6583;42.632;23.298;2022-11-09T04:06:26;93019.44;;;8.35;100.00
13033;BME280;6583;42.632;23.298;2022-11-09T04:08:52;93014.69;;;8.37;100.00
13033;BME280;6583;42.632;23.298;2022-11-09T04:11:19;93020.53;;;8.39;100.00
13033;BME280;6583;42.632;23.298;2022-11-09T04:13:46;93021.56;;;8.38;100.00
13033;BME280;6583;42.632;23.298;2022-11-09T04:16:13;93028.44;;;8.34;100.00
13033;BME280;6583;42.632;23.298;2022-11-09T04:18:40;93018.38;;;8.31;100.00
13033;BME280;6583;42.632;23.298;2022-11-09T04:21:08;93021.03;;;8.26;100.00
13033;BME280;6583;42.632;23.298;2022-11-09T04:23:35;93019.97;;;8.22;100.00
13033;BME280;6583;42.632;23.298;2022-11-09T04:26:01;93016.50;;;8.21;100.00
13033;BME280;6583;42.632;23.298;2022-11-09T04:28:28;93023.13;;;8.19;100.00
13033;BME280;6583;42.632;23.298;2022-11-09T04:30:59;93020.22;;;8.15;100.00
13033;BME280;6583;42.632;23.298;2022-11-09T04:33:25;93014.91;;;8.10;100.00
13033;BME280;6583;42.632;23.298;2022-11-09T04:35:52;93019.38;;;8.04;100.00
13033;BME280;6583;42.632;23.298;2022-11-09T04:38:20;93019.66;;;7.98;100.00
13033;BME280;6583;42.632;23.298;2022-11-09T04:40:47;93016.19;;;7.92;100.00
13033;BME280;6583;42.632;23.298;2022-11-09T04:43:13;93020.41;;;7.88;100.00
13033;BME280;6583;42.632;23.298;2022-11-09T04:45:40;93021.44;;;7.87;100.00
13033;BME280;6583;42.632;23.298;2022-11-09T04:48:07;93022.53;;;7.86;100.00
13033;BME280;6583;42.632;23.298;2022-11-09T04:50:35;93020.38;;;7.83;100.00
13033;BME280;6583;42.632;23.298;2022-11-09T04:53:06;93027.78;;;7.81;100.00
13033;BME280;6583;42.632;23.298;2022-11-09T04:55:35;93029.34;;;7.82;100.00
13033;BME280;6583;42.632;23.298;2022-11-09T04:58:01;93028.31;;;7.83;100.00
13033;BME280;6583;42.632;23.298;2022-11-09T05:00:28;93021.44;;;7.87;100.00
13033;BME280;6583;42.632;23.298;2022-11-09T05:02:58;93026.75;;;7.92;100.00
13033;BME280;6583;42.632;23.298;2022-11-09T05:05:25;93031.00;;;7.98;100.00
13033;BME280;6583;42.632;23.298;2022-11-09T05:07:52;93027.31;;;8.04;100.00
13033;BME280;6583;42.632;23.298;2022-11-09T05:10:19;93033.16;;;8.06;100.00
13033;BME280;6583;42.632;23.298;2022-11-09T05:12:47;93034.75;;;8.13;100.00
13033;BME280;6583;42.632;23.298;2022-11-09T05:15:13;93037.41;;;8.18;100.00
13033;BME280;6583;42.632;23.298;2022-11-09T05:17:40;93039.81;;;8.29;100.00
13033;BME280;6583;42.632;23.298;2022-11-09T05:20:07;93037.44;;;8.33;100.00
13033;BME280;6583;42.632;23.298;2022-11-09T05:22:38;93035.84;;;8.37;100.00
13033;BME280;6583;42.632;23.298;2022-11-09T05:25:23;93042.97;;;8.37;100.00
13033;BME280;6583;42.632;23.298;2022-11-09T05:27:51;93046.69;;;8.36;100.00
13033;BME280;6583;42.632;23.298;2022-11-09T05:30:18;93046.41;;;8.32;100.00
13033;BME280;6583;42.632;23.298;2022-11-09T05:32:45;93045.88;;;8.30;100.00
13033;BME280;6583;42.632;23.298;2022-11-09T05:35:12;93054.91;;;8.34;100.00
13033;BME280;6583;42.632;23.298;2022-11-09T05:37:39;93051.69;;;8.37;100.00
13033;BME280;6583;42.632;23.298;2022-11-09T05:40:07;93046.97;;;8.39;100.00
13033;BME280;6583;42.632;23.298;2022-11-09T05:42:37;93054.34;;;8.37;100.00
13033;BME280;6583;42.632;23.298;2022-11-09T05:45:06;93046.94;;;8.29;100.00
13033;BME280;6583;42.632;23.298;2022-11-09T05:47:36;93052.00;;;8.36;100.00
13033;BME280;6583;42.632;23.298;2022-11-09T05:50:04;93056.72;;;8.39;100.00
13033;BME280;6583;42.632;23.298;2022-11-09T05:52:31;93057.03;;;8.42;100.00
13033;BME280;6583;42.632;23.298;2022-11-09T05:54:58;93062.06;;;8.54;100.00
13033;BME280;6583;42.632;23.298;2022-11-09T05:57:26;93072.16;;;8.62;100.00
13033;BME280;6583;42.632;23.298;2022-11-09T05:59:53;93067.13;;;8.71;100.00
13033;BME280;6583;42.632;23.298;2022-11-09T06:02:21;93073.72;;;8.79;100.00
13033;BME280;6583;42.632;23.298;2022-11-09T06:04:48;93083.28;;;8.85;100.00
13033;BME280;6583;42.632;23.298;2022-11-09T06:07:14;93074.53;;;8.84;100.00
13033;BME280;6583;42.632;23.298;2022-11-09T06:09:41;93077.72;;;8.87;100.00
13033;BME280;6583;42.632;23.298;2022-11-09T06:12:08;93083.28;;;8.95;100.00
13033;BME280;6583;42.632;23.298;2022-11-09T06:14:34;93083.28;;;9.00;100.00
13033;BME280;6583;42.632;23.298;2022-11-09T06:17:01;93082.75;;;9.09;100.00
13033;BME280;6583;42.632;23.298;2022-11-09T06:19:29;93079.53;;;9.17;100.00
13033;BME280;6583;42.632;23.298;2022-11-09T06:21:56;93081.94;;;9.23;100.00
13033;BME280;6583;42.632;23.298;2022-11-09T06:24:23;93084.84;;;9.32;100.00
13033;BME280;6583;42.632;23.298;2022-11-09T06:26:49;93088.28;;;9.38;100.00
13033;BME280;6583;42.632;23.298;2022-11-09T06:29:16;93092.50;;;9.44;100.00
13033;BME280;6583;42.632;23.298;2022-11-09T06:31:44;93089.84;;;9.49;100.00
13033;BME280;6583;42.632;23.298;2022-11-09T06:34:11;93088.25;;;9.53;100.00
13033;BME280;6583;42.632;23.298;2022-11-09T06:36:39;93085.56;;;9.58;100.00
13033;BME280;6583;42.632;23.298;2022-11-09T06:39:06;93085.56;;;9.64;100.00
13033;BME280;6583;42.632;23.298;2022-11-09T06:41:33;93082.91;;;9.69;100.00
13033;BME280;6583;42.632;23.298;2022-11-09T06:44:00;93080.22;;;9.74;100.00
13033;BME280;6583;42.632;23.298;2022-11-09T06:46:26;93078.13;;;9.76;100.00
13033;BME280;6583;42.632;23.298;2022-11-09T06:48:53;93079.41;;;9.84;100.00
13033;BME280;6583;42.632;23.298;2022-11-09T06:51:20;93083.66;;;9.90;100.00
13033;BME280;6583;42.632;23.298;2022-11-09T06:53:48;93082.03;;;9.94;100.00
13033;BME280;6583;42.632;23.298;2022-11-09T06:56:15;93086.53;;;9.98;100.00
13033;BME280;6583;42.632;23.298;2022-11-09T06:58:42;93087.56;;;10.03;100.00
13033;BME280;6583;42.632;23.298;2022-11-09T07:01:09;93087.81;;;10.06;100.00
13033;BME280;6583;42.632;23.298;2022-11-09T07:03:37;93088.59;;;10.12;100.00
13033;BME280;6583;42.632;23.298;2022-11-09T07:06:05;93096.53;;;10.12;100.00
13033;BME280;6583;42.632;23.298;2022-11-09T07:08:33;93091.47;;;10.15;100.00
13033;BME280;6583;42.632;23.298;2022-11-09T07:11:05;93089.91;;;10.14;100.00
13033;BME280;6583;42.632;23.298;2022-11-09T07:13:32;93085.41;;;10.15;100.00
13033;BME280;6583;42.632;23.298;2022-11-09T07:15:59;93084.59;;;10.14;100.00
13033;BME280;6583;42.632;23.298;2022-11-09T07:18:26;93092.53;;;10.20;100.00
13033;BME280;6583;42.632;23.298;2022-11-09T07:20:52;93088.56;;;10.17;100.00
13033;BME280;6583;42.632;23.298;2022-11-09T07:23:19;93088.56;;;10.17;100.00
13033;BME280;6583;42.632;23.298;2022-11-09T07:25:46;93087.00;;;10.16;100.00
13033;BME280;6583;42.632;23.298;2022-11-09T07:28:14;93078.19;;;10.21;100.00
13033;BME280;6583;42.632;23.298;2022-11-09T07:30:41;93085.34;;;10.25;100.00
13033;BME280;6583;42.632;23.298;2022-11-09T07:33:13;93090.63;;;10.30;100.00
13033;BME280;6583;42.632;23.298;2022-11-09T07:35:42;93078.16;;;10.36;100.00
13033;BME280;6583;42.632;23.298;2022-11-09T07:38:10;93081.03;;;10.45;100.00
13033;BME280;6583;42.632;23.298;2022-11-09T07:40:36;93074.66;;;10.46;100.00
13033;BME280;6583;42.632;23.298;2022-11-09T07:43:05;93075.69;;;10.50;100.00
13033;BME280;6583;42.632;23.298;2022-11-09T07:45:34;93084.19;;;10.52;100.00
13033;BME280;6583;42.632;23.298;2022-11-09T07:48:04;93085.19;;;10.61;100.00
13033;BME280;6583;42.632;23.298;2022-11-09T07:50:31;93088.88;;;10.65;100.00
13033;BME280;6583;42.632;23.298;2022-11-09T07:52:59;93090.47;;;10.66;100.00
13033;BME280;6583;42.632;23.298;2022-11-09T07:55:28;93093.13;;;10.66;100.00
13033;BME280;6583;42.632;23.298;2022-11-09T07:57:55;93089.91;;;10.69;100.00
13033;BME280;6583;42.632;23.298;2022-11-09T08:00:22;93092.28;;;10.71;100.00
13033;BME280;6583;42.632;23.298;2022-11-09T08:02:50;93092.03;;;10.67;100.00
13033;BME280;6583;42.632;23.298;2022-11-09T08:05:17;93085.94;;;10.67;100.00
13033;BME280;6583;42.632;23.298;2022-11-09T08:07:44;93090.94;;;10.73;100.00
13033;BME280;6583;42.632;23.298;2022-11-09T08:10:11;93088.00;;;10.75;100.00
13033;BME280;6583;42.632;23.298;2022-11-09T08:12:38;93091.16;;;10.82;100.00
13033;BME280;6583;42.632;23.298;2022-11-09T08:15:06;93090.34;;;10.87;100.00
13033;BME280;6583;42.632;23.298;2022-11-09T08:17:32;93099.28;;;10.96;100.00
13033;BME280;6583;42.632;23.298;2022-11-09T08:20:00;93090.72;;;11.04;100.00
13033;BME280;6583;42.632;23.298;2022-11-09T08:22:27;93100.81;;;11.07;100.00
13033;BME280;6583;42.632;23.298;2022-11-09T08:24:54;93093.03;;;11.16;100.00
13033;BME280;6583;42.632;23.298;2022-11-09T08:27:20;93093.03;;;11.16;100.00
13033;BME280;6583;42.632;23.298;2022-11-09T08:29:47;93100.47;;;11.14;100.00
13033;BME280;6583;42.632;23.298;2022-11-09T08:32:14;93099.91;;;11.17;100.00
13033;BME280;6583;42.632;23.298;2022-11-09T08:34:45;93106.22;;;11.26;100.00
13033;BME280;6583;42.632;23.298;2022-11-09T08:37:13;93100.06;;;11.31;100.00
13033;BME280;6583;42.632;23.298;2022-11-09T08:39:40;93105.84;;;11.38;100.00
13033;BME280;6583;42.632;23.298;2022-11-09T08:42:07;93109.00;;;11.45;100.00
13033;BME280;6583;42.632;23.298;2022-11-09T08:44:33;93107.31;;;11.55;100.00
13033;BME280;6583;42.632;23.298;2022-11-09T08:47:00;93109.69;;;11.56;100.00
13033;BME280;6583;42.632;23.298;2022-11-09T08:49:27;93106.69;;;11.63;100.00
13033;BME280;6583;42.632;23.298;2022-11-09T08:51:53;93113.03;;;11.67;100.00
13033;BME280;6583;42.632;23.298;2022-11-09T08:54:21;93106.88;;;11.72;100.00
13033;BME280;6583;42.632;23.298;2022-11-09T08:56:48;93109.75;;;11.75;100.00
13033;BME280;6583;42.632;23.298;2022-11-09T08:59:15;93108.63;;;11.81;100.00
13033;BME280;6583;42.632;23.298;2022-11-09T09:01:41;93107.84;;;11.81;100.00
13033;BME280;6583;42.632;23.298;2022-11-09T09:04:08;93114.16;;;11.85;100.00
13033;BME280;6583;42.632;23.298;2022-11-09T09:06:34;93112.81;;;11.88;100.00
13033;BME280;6583;42.632;23.298;2022-11-09T09:09:01;93107.00;;;11.85;100.00
13033;BME280;6583;42.632;23.298;2022-11-09T09:11:29;93115.47;;;11.88;100.00
13033;BME280;6583;42.632;23.298;2022-11-09T09:13:56;93110.94;;;11.93;100.00
13033;BME280;6583;42.632;23.298;2022-11-09T09:16:23;93118.06;;;11.98;100.00
13033;BME280;6583;42.632;23.298;2022-11-09T09:18:49;93120.72;;;11.98;100.00
13033;BME280;6583;42.632;23.298;2022-11-09T09:21:16;93115.34;;;12.03;100.00
13033;BME280;6583;42.632;23.298;2022-11-09T09:23:43;93106.34;;;11.99;100.00
13033;BME280;6583;42.632;23.298;2022-11-09T09:26:09;93105.31;;;11.95;100.00
13033;BME280;6583;42.632;23.298;2022-11-09T09:28:37;93104.50;;;11.99;100.00
13033;BME280;6583;42.632;23.298;2022-11-09T09:31:05;93101.78;;;12.04;100.00
13033;BME280;6583;42.632;23.298;2022-11-09T09:33:33;93098.84;;;12.06;100.00
13033;BME280;6583;42.632;23.298;2022-11-09T09:36:00;93097.19;;;12.10;100.00
13033;BME280;6583;42.632;23.298;2022-11-09T09:38:29;93100.84;;;12.14;100.00
13033;BME280;6583;42.632;23.298;2022-11-09T09:40:58;93094.19;;;12.17;100.00
13033;BME280;6583;42.632;23.298;2022-11-09T09:43:28;93099.72;;;12.20;99.39
13033;BME280;6583;42.632;23.298;2022-11-09T09:45:58;93088.72;;;12.27;99.55
13033;BME280;6583;42.632;23.298;2022-11-09T09:48:30;93092.19;;;12.28;99.25
13033;BME280;6583;42.632;23.298;2022-11-09T09:51:04;93092.84;;;12.38;99.98
13033;BME280;6583;42.632;23.298;2022-11-09T09:53:35;93083.50;;;12.41;100.00
13033;BME280;6583;42.632;23.298;2022-11-09T09:56:10;93083.72;;;12.45;100.00
13033;BME280;6583;42.632;23.298;2022-11-09T09:58:41;93085.59;;;12.44;99.49
13033;BME280;6583;42.632;23.298;2022-11-09T10:01:15;93078.19;;;12.41;99.16
13033;BME280;6583;42.632;23.298;2022-11-09T10:03:42;93079.19;;;12.45;99.18
13033;BME280;6583;42.632;23.298;2022-11-09T10:06:22;93074.94;;;12.44;99.74
13033;BME280;6583;42.632;23.298;2022-11-09T10:08:58;93070.13;;;12.46;100.00
13033;BME280;6583;42.632;23.298;2022-11-09T10:11:32;93076.22;;;12.47;100.00
13033;BME280;6583;42.632;23.298;2022-11-09T10:14:20;93073.28;;;12.48;99.39
13033;BME280;6583;42.632;23.298;2022-11-09T10:16:58;93070.06;;;12.51;97.99
13033;BME280;6583;42.632;23.298;2022-11-09T10:19:38;93066.59;;;12.51;97.23
13033;BME280;6583;42.632;23.298;2022-11-09T10:22:14;93070.00;;;12.56;94.89
13033;BME280;6583;42.632;23.298;2022-11-09T10:24:52;93075.75;;;12.64;94.29
13033;BME280;6583;42.632;23.298;2022-11-09T10:27:25;93073.00;;;12.69;93.67
13033;BME280;6583;42.632;23.298;2022-11-09T10:29:53;93066.88;;;12.68;92.11
13033;BME280;6583;42.632;23.298;2022-11-09T10:32:22;93069.84;;;12.67;91.36
13033;BME280;6583;42.632;23.298;2022-11-09T10:34:52;93065.16;;;12.77;90.31
13033;BME280;6583;42.632;23.298;2022-11-09T10:37:23;93071.97;;;12.84;89.83
13033;BME280;6583;42.632;23.298;2022-11-09T10:39:57;93070.34;;;12.88;88.79
13033;BME280;6583;42.632;23.298;2022-11-09T10:42:25;93062.06;;;12.89;89.25
13033;BME280;6583;42.632;23.298;2022-11-09T10:44:52;93055.34;;;12.92;89.76
13033;BME280;6583;42.632;23.298;2022-11-09T10:47:19;93064.13;;;12.92;88.96
13033;BME280;6583;42.632;23.298;2022-11-09T10:50:05;93057.16;;;12.96;88.97
13033;BME280;6583;42.632;23.298;2022-11-09T10:52:34;93048.06;;;12.97;89.50
13033;BME280;6583;42.632;23.298;2022-11-09T10:55:18;93050.50;;;12.94;89.96
13033;BME280;6583;42.632;23.298;2022-11-09T10:57:53;93049.06;;;13.02;89.72
13033;BME280;6583;42.632;23.298;2022-11-09T11:00:21;93039.63;;;13.09;90.52
13033;BME280;6583;42.632;23.298;2022-11-09T11:02:47;93036.50;;;13.21;90.25
13033;BME280;6583;42.632;23.298;2022-11-09T11:05:26;93030.59;;;13.24;88.53
13033;BME280;6583;42.632;23.298;2022-11-09T11:07:53;93035.41;;;13.22;87.64
13033;BME280;6583;42.632;23.298;2022-11-09T11:10:21;93036.34;;;13.31;87.96
13033;BME280;6583;42.632;23.298;2022-11-09T11:12:56;93036.06;;;13.33;87.37
13033;BME280;6583;42.632;23.298;2022-11-09T11:15:28;93037.13;;;13.32;86.93
13033;BME280;6583;42.632;23.298;2022-11-09T11:18:00;93034.31;;;13.23;87.44
13033;BME280;6583;42.632;23.298;2022-11-09T11:20:31;93028.41;;;13.26;88.91
13033;BME280;6583;42.632;23.298;2022-11-09T11:23:10;93029.63;;;13.34;88.44
13033;BME280;6583;42.632;23.298;2022-11-09T11:25:50;93029.88;;;13.38;87.79
13033;BME280;6583;42.632;23.298;2022-11-09T11:28:23;93017.22;;;13.43;88.18
13033;BME280;6583;42.632;23.298;2022-11-09T11:30:52;93021.16;;;13.46;87.71
13033;BME280;6583;42.632;23.298;2022-11-09T11:33:19;93017.34;;;13.52;88.26
13033;BME280;6583;42.632;23.298;2022-11-09T11:35:51;93017.44;;;13.47;87.48
13033;BME280;6583;42.632;23.298;2022-11-09T11:38:26;93023.91;;;13.41;87.74
13033;BME280;6583;42.632;23.298;2022-11-09T11:41:00;93018.59;;;13.41;87.59
13033;BME280;6583;42.632;23.298;2022-11-09T11:43:34;93007.34;;;13.44;87.89
13033;BME280;6583;42.632;23.298;2022-11-09T11:46:13;93009.63;;;13.50;87.82
13033;BME280;6583;42.632;23.298;2022-11-09T11:49:00;93006.66;;;13.52;87.28
13033;BME280;6583;42.632;23.298;2022-11-09T11:51:38;93006.56;;;13.57;89.44
13033;BME280;6583;42.632;23.298;2022-11-09T11:54:14;93001.63;;;13.64;89.25
13033;BME280;6583;42.632;23.298;2022-11-09T11:56:46;93000.03;;;13.63;87.17
13033;BME280;6583;42.632;23.298;2022-11-09T12:05:35;93002.63;;;13.68;88.84
13033;BME280;6583;42.632;23.298;2022-11-09T12:08:10;93009.25;;;13.71;89.62
13033;BME280;6583;42.632;23.298;2022-11-09T12:10:50;93006.59;;;13.71;89.11
13033;BME280;6583;42.632;23.298;2022-11-09T12:13:38;93000.25;;;13.67;88.58
13033;BME280;6583;42.632;23.298;2022-11-09T12:16:12;93008.56;;;13.65;87.02
13033;BME280;6583;42.632;23.298;2022-11-09T12:18:51;93002.63;;;13.68;88.49
13033;BME280;6583;42.632;23.298;2022-11-09T12:21:27;93002.63;;;13.68;89.37
13033;BME280;6583;42.632;23.298;2022-11-09T12:24:16;92996.50;;;13.68;90.58
13033;BME280;6583;42.632;23.298;2022-11-09T12:26:55;92998.00;;;13.60;88.77
13033;BME280;6583;42.632;23.298;2022-11-09T12:29:28;92993.72;;;13.59;86.41
13033;BME280;6583;42.632;23.298;2022-11-09T12:32:08;92994.41;;;13.65;88.39
13033;BME280;6583;42.632;23.298;2022-11-09T12:34:45;92988.88;;;13.61;89.47
13033;BME280;6583;42.632;23.298;2022-11-09T12:37:14;92981.38;;;13.63;89.10
13033;BME280;6583;42.632;23.298;2022-11-09T12:39:45;92982.97;;;13.64;89.79
13033;BME280;6583;42.632;23.298;2022-11-09T12:42:17;92979.72;;;13.67;92.89
13033;BME280;6583;42.632;23.298;2022-11-09T12:44:53;92984.84;;;13.64;90.95
13033;BME280;6583;42.632;23.298;2022-11-09T12:47:27;92985.63;;;13.64;91.44
13033;BME280;6583;42.632;23.298;2022-11-09T12:49:55;92978.41;;;13.65;90.51
13033;BME280;6583;42.632;23.298;2022-11-09T12:52:26;92988.19;;;13.69;90.33
13033;BME280;6583;42.632;23.298;2022-11-09T12:54:55;92980.19;;;13.69;91.07
13033;BME280;6583;42.632;23.298;2022-11-09T12:57:27;92980.78;;;13.66;91.14
13033;BME280;6583;42.632;23.298;2022-11-09T12:59:55;92981.38;;;13.63;90.75
13033;BME280;6583;42.632;23.298;2022-11-09T13:02:27;92981.47;;;13.58;91.52
13033;BME280;6583;42.632;23.298;2022-11-09T13:04:56;92978.91;;;13.53;92.47
13033;BME280;6583;42.632;23.298;2022-11-09T13:07:42;92979.13;;;13.43;93.80
13033;BME280;6583;42.632;23.298;2022-11-09T13:10:27;92979.78;;;13.34;94.23
13033;BME280;6583;42.632;23.298;2022-11-09T13:13:02;92975.09;;;13.26;94.48
13033;BME280;6583;42.632;23.298;2022-11-09T13:15:31;92974.72;;;13.19;94.72